createdAt,value
2023-01-27T00:02:04.487Z,93.05
2023-01-27T00:07:06.122Z,92.77
2023-01-27T00:12:39.439Z,92.37
2023-01-27T00:17:41.584Z,92.12
2023-01-27T00:23:01.716Z,91.96
2023-01-27T00:28:05.856Z,92.04
2023-01-27T00:33:30.062Z,91.49
2023-01-27T00:38:33.761Z,91.10
2023-01-27T00:43:35.407Z,91.42
2023-01-27T00:48:37.272Z,91.70
2023-01-27T00:53:39.302Z,90.81
2023-01-27T00:58:41.111Z,90.96
2023-01-27T01:03:43.332Z,91.04
2023-01-27T01:08:45.216Z,90.83
2023-01-27T01:13:47.273Z,90.49
2023-01-27T01:18:49.200Z,91.21
2023-01-27T01:23:51.041Z,90.95
2023-01-27T01:28:52.761Z,91.41
2023-01-27T01:33:54.404Z,91.33
2023-01-27T01:38:59.215Z,90.98
2023-01-27T01:44:22.519Z,91.34
2023-01-27T01:49:28.419Z,90.66
2023-01-27T01:54:38.795Z,90.76
2023-01-27T01:59:59.923Z,90.62
2023-01-27T02:05:14.916Z,90.30
2023-01-27T02:10:16.769Z,90.67
2023-01-27T02:15:21.607Z,91.43
2023-01-27T02:20:32.324Z,90.87
2023-01-27T02:25:43.801Z,90.36
2023-01-27T02:30:45.727Z,91.23
2023-01-27T02:36:17.790Z,91.34
2023-01-27T02:41:40.377Z,91.03
2023-01-27T02:46:42.404Z,90.84
2023-01-27T02:51:44.301Z,90.38
2023-01-27T02:56:46.146Z,90.19
2023-01-27T03:01:51.644Z,91.24
2023-01-27T03:06:54.523Z,92.82
2023-01-27T03:12:14.849Z,92.26
2023-01-27T03:17:35.178Z,93.38
2023-01-27T03:22:37.737Z,93.18
2023-01-27T03:27:39.507Z,93.65
2023-01-27T03:33:10.560Z,93.36
2023-01-27T03:38:53.736Z,94.13
2023-01-27T03:44:14.209Z,94.48
2023-01-27T03:49:15.987Z,94.92
2023-01-27T03:54:17.603Z,95.52
2023-01-27T03:59:19.283Z,95.99
2023-01-27T04:04:39.358Z,95.55
2023-01-27T04:09:41.010Z,95.47
2023-01-27T04:14:42.658Z,96.11
2023-01-27T04:19:44.791Z,96.06
2023-01-27T04:24:46.502Z,96.01
2023-01-27T04:29:48.411Z,95.80
2023-01-27T04:34:50.134Z,96.22
2023-01-27T04:39:52.048Z,95.76
2023-01-27T04:44:53.687Z,95.81
2023-01-27T04:49:55.601Z,95.43
2023-01-27T04:54:57.358Z,95.72
2023-01-27T04:59:59.058Z,95.96
2023-01-27T05:05:04.662Z,95.71
2023-01-27T05:10:07.472Z,95.85
2023-01-27T05:15:09.429Z,96.12
2023-01-27T05:20:11.729Z,96.18
2023-01-27T05:25:13.635Z,96.28
2023-01-27T05:30:15.728Z,97.02
2023-01-27T05:35:17.509Z,97.07
2023-01-27T05:40:19.224Z,96.80
2023-01-27T05:45:21.007Z,97.08
2023-01-27T05:50:22.770Z,97.22
2023-01-27T05:55:24.398Z,96.56
2023-01-27T06:00:26.163Z,97.04
2023-01-27T06:05:27.784Z,96.74
2023-01-27T06:10:29.806Z,96.45
2023-01-27T06:15:31.987Z,96.47
2023-01-27T06:20:33.741Z,97.19
2023-01-27T06:25:37.530Z,96.23
2023-01-27T06:30:40.075Z,96.32
2023-01-27T06:35:41.836Z,96.84
2023-01-27T06:40:44.240Z,96.41
2023-01-27T06:45:46.081Z,96.38
2023-01-27T06:50:47.700Z,96.36
2023-01-27T06:55:49.706Z,95.90
2023-01-27T07:00:52.161Z,95.84
2023-01-27T07:05:53.829Z,95.86
2023-01-27T07:10:55.507Z,95.35
2023-01-27T07:15:57.702Z,94.76
2023-01-27T07:20:59.391Z,93.72
2023-01-27T07:26:04.262Z,92.70
2023-01-27T07:31:09.802Z,92.93
2023-01-27T07:36:11.566Z,92.97
2023-01-27T07:41:14.648Z,93.47
2023-01-27T07:46:16.286Z,92.76
2023-01-27T07:51:17.978Z,92.92
2023-01-27T07:56:19.608Z,92.58
2023-01-27T08:01:21.286Z,92.79
2023-01-27T08:06:23.041Z,94.13
2023-01-27T08:11:24.650Z,94.50
2023-01-27T08:16:26.278Z,93.84
2023-01-27T08:21:32.821Z,93.63
2023-01-27T08:26:34.485Z,93.25
2023-01-27T08:31:36.217Z,92.29
2023-01-27T08:36:41.852Z,92.71
2023-01-27T08:41:43.457Z,92.08
2023-01-27T08:46:45.306Z,91.35
2023-01-27T08:51:47.127Z,90.88
2023-01-27T08:56:48.798Z,90.10
2023-01-27T09:01:50.432Z,90.39
2023-01-27T09:06:54.180Z,91.31
2023-01-27T09:11:55.816Z,91.28
2023-01-27T09:16:57.459Z,91.44
2023-01-27T09:21:59.625Z,90.94
2023-01-27T09:27:01.345Z,91.02
2023-01-27T09:32:03.758Z,91.08
2023-01-27T09:37:08.833Z,91.03
2023-01-27T09:42:27.188Z,91.23
2023-01-27T09:47:42.166Z,91.53
2023-01-27T09:52:50.879Z,89.82
2023-01-27T09:58:02.208Z,89.94
2023-01-27T10:03:26.354Z,90.20
2023-01-27T10:08:52.777Z,89.99
2023-01-27T10:14:18.890Z,89.84
2023-01-27T10:19:20.439Z,90.63
2023-01-27T10:24:37.202Z,90.58
2023-01-27T10:29:47.053Z,90.88
2023-01-27T10:35:23.918Z,92.11
2023-01-27T10:40:47.360Z,92.03
2023-01-27T10:46:23.889Z,92.96
2023-01-27T10:51:35.645Z,93.56
2023-01-27T10:56:47.527Z,93.55
2023-01-27T11:01:56.362Z,93.71
2023-01-27T11:06:59.089Z,93.26
2023-01-27T11:12:02.854Z,94.29
2023-01-27T11:17:37.630Z,95.19
2023-01-27T11:22:55.667Z,95.61
2023-01-27T11:28:11.211Z,94.88
2023-01-27T11:33:44.227Z,94.53
2023-01-27T11:38:46.494Z,95.36
2023-01-27T11:43:48.285Z,95.17
2023-01-27T11:48:52.453Z,95.19
2023-01-27T11:54:20.737Z,95.54
2023-01-27T11:59:52.769Z,95.25
2023-01-27T12:05:10.079Z,94.83
2023-01-27T12:10:24.258Z,95.32
2023-01-27T12:15:31.135Z,94.91
2023-01-27T12:20:32.753Z,95.03
2023-01-27T12:25:44.739Z,94.59
2023-01-27T12:30:46.972Z,94.53
2023-01-27T12:35:49.377Z,93.58
2023-01-27T12:41:01.508Z,93.84
2023-01-27T12:46:06.188Z,93.43
2023-01-27T12:51:15.639Z,93.92
2023-01-27T12:56:22.474Z,93.44
2023-01-27T13:01:27.035Z,92.82
2023-01-27T13:06:42.533Z,91.86
2023-01-27T13:11:44.800Z,91.91
2023-01-27T13:16:54.244Z,91.72
2023-01-27T13:21:56.262Z,91.79
2023-01-27T13:26:58.555Z,93.00
2023-01-27T13:32:23.681Z,93.78
2023-01-27T13:37:38.063Z,92.85
2023-01-27T13:42:55.475Z,92.64
2023-01-27T13:48:00.335Z,92.75
2023-01-27T13:53:02.613Z,91.59
2023-01-27T13:58:13.182Z,91.74
2023-01-27T14:03:26.082Z,92.29
2023-01-27T14:08:54.096Z,92.18
2023-01-27T14:14:04.523Z,92.42
2023-01-27T14:19:12.028Z,93.16
2023-01-27T14:24:35.738Z,93.58
2023-01-27T14:29:40.504Z,93.75
2023-01-27T14:35:07.788Z,93.76
2023-01-27T14:40:15.876Z,93.84
2023-01-27T14:45:30.711Z,94.00
2023-01-27T14:50:49.521Z,94.44
2023-01-27T14:56:18.517Z,95.29
2023-01-27T15:01:31.969Z,95.68
2023-01-27T15:06:47.752Z,96.16
2023-01-27T15:12:12.399Z,96.16
2023-01-27T15:17:28.750Z,96.78
2023-01-27T15:22:54.904Z,97.02
2023-01-27T15:27:56.725Z,97.17
2023-01-27T15:32:58.382Z,97.69
2023-01-27T15:38:00.365Z,97.96
2023-01-27T15:43:05.165Z,97.61
2023-01-27T15:48:11.858Z,98.07
2023-01-27T15:53:16.776Z,98.20
2023-01-27T15:58:23.188Z,98.02
2023-01-27T16:03:48.117Z,98.00
2023-01-27T16:09:05.647Z,98.06
2023-01-27T16:14:16.976Z,98.32
2023-01-27T16:19:19.656Z,98.27
2023-01-27T16:24:41.838Z,98.16
2023-01-27T16:29:49.011Z,98.40
2023-01-27T16:34:53.503Z,98.14
2023-01-27T16:39:56.536Z,97.93
2023-01-27T16:45:01.542Z,97.54
2023-01-27T16:50:03.373Z,97.09
2023-01-27T16:55:05.437Z,96.63
2023-01-27T17:00:20.156Z,95.01
2023-01-27T17:05:22.333Z,93.68
2023-01-27T17:10:34.209Z,91.71
2023-01-27T17:15:38.117Z,90.77
2023-01-27T17:20:43.059Z,89.07
2023-01-27T17:25:46.556Z,88.40
2023-01-27T17:30:48.364Z,88.48
2023-01-27T17:35:52.664Z,88.45
2023-01-27T17:40:55.355Z,89.09
2023-01-27T17:46:06.245Z,87.98
2023-01-27T17:51:12.969Z,87.55
2023-01-27T17:56:19.799Z,87.80
2023-01-27T18:01:21.737Z,87.88
2023-01-27T18:06:29.629Z,87.57
2023-01-27T18:11:32.759Z,87.55
2023-01-27T18:16:35.319Z,87.36
2023-01-27T18:21:37.254Z,87.68
2023-01-27T18:26:38.809Z,87.62
2023-01-27T18:31:57.064Z,88.39
2023-01-27T18:37:06.600Z,88.32
2023-01-27T18:42:15.089Z,88.33
2023-01-27T18:47:19.638Z,88.68
2023-01-27T18:52:21.778Z,88.47
2023-01-27T18:57:23.482Z,89.13
2023-01-27T19:02:25.444Z,89.66
2023-01-27T19:07:27.091Z,89.66
2023-01-27T19:12:28.715Z,90.25
2023-01-27T19:17:30.393Z,90.29
2023-01-27T19:22:32.033Z,90.27
2023-01-27T19:27:33.874Z,90.22
2023-01-27T19:32:35.563Z,90.34
2023-01-27T19:37:37.254Z,90.59
2023-01-27T19:42:38.965Z,90.51
2023-01-27T19:47:43.691Z,90.51
2023-01-27T19:52:45.705Z,90.40
2023-01-27T19:57:48.541Z,90.67
2023-01-27T20:02:50.753Z,90.56
2023-01-27T20:07:57.241Z,90.65
2023-01-27T20:13:00.607Z,90.16
2023-01-27T20:18:02.278Z,90.30
2023-01-27T20:23:03.997Z,90.35
2023-01-27T20:28:05.696Z,90.07
2023-01-27T20:33:07.352Z,90.33
2023-01-27T20:38:09.196Z,89.60
2023-01-27T20:43:12.212Z,89.63
2023-01-27T20:48:13.884Z,89.92
2023-01-27T20:53:15.551Z,89.62
2023-01-27T20:58:17.210Z,89.48
2023-01-27T21:03:18.916Z,89.80
2023-01-27T21:08:21.947Z,89.26
2023-01-27T21:13:23.686Z,89.50
2023-01-27T21:18:25.459Z,89.66
2023-01-27T21:23:31.740Z,89.78
2023-01-27T21:28:34.021Z,89.76
2023-01-27T21:33:37.510Z,89.78
2023-01-27T21:38:39.443Z,90.11
2023-01-27T21:43:59.844Z,89.45
2023-01-27T21:49:01.480Z,89.74
2023-01-27T21:54:03.429Z,89.85
2023-01-27T21:59:05.134Z,90.24
2023-01-27T22:04:07.108Z,90.35
2023-01-27T22:09:08.794Z,90.19
2023-01-27T22:14:10.461Z,90.56
2023-01-27T22:19:12.131Z,90.44
2023-01-27T22:24:13.914Z,90.66
2023-01-27T22:29:16.006Z,90.98
2023-01-27T22:34:17.698Z,91.34
2023-01-27T22:39:19.848Z,91.34
2023-01-27T22:44:21.721Z,91.69
2023-01-27T22:49:23.447Z,91.57
2023-01-27T22:54:25.309Z,92.38
2023-01-27T22:59:27.021Z,92.39
2023-01-27T23:04:28.760Z,92.78
2023-01-27T23:09:31.300Z,93.98
2023-01-27T23:14:32.943Z,93.99
2023-01-27T23:19:34.570Z,95.50
2023-01-27T23:24:36.295Z,96.20
2023-01-27T23:29:37.944Z,96.59
2023-01-27T23:34:39.737Z,96.87
2023-01-27T23:39:46.003Z,97.47
2023-01-27T23:44:47.844Z,97.72
2023-01-27T23:49:49.452Z,97.54
2023-01-27T23:54:51.152Z,96.92
2023-01-27T23:59:52.785Z,95.88
